sensor_id;sensor_type;location;lat;lon;timestamp;temperature;humidity
9201;DHT22;4635;48.686;9.008;2023-03-14T00:22:12;8.60;99.90
9201;DHT22;4635;48.686;9.008;2023-03-14T00:24:40;8.50;99.90
9201;DHT22;4635;48.686;9.008;2023-03-14T00:27:21;8.20;99.90
9201;DHT22;4635;48.686;9.008;2023-03-14T00:29:51;8.20;99.90
9201;DHT22;4635;48.686;9.008;2023-03-14T00:32:32;8.20;99.90
9201;DHT22;4635;48.686;9.008;2023-03-14T00:35:19;8.20;99.90
9201;DHT22;4635;48.686;9.008;2023-03-14T00:43:49;7.80;99.90
9201;DHT22;4635;48.686;9.008;2023-03-14T00:46:19;8.20;99.90
9201;DHT22;4635;48.686;9.008;2023-03-14T00:48:47;8.20;99.90
9201;DHT22;4635;48.686;9.008;2023-03-14T00:51:30;8.20;99.90
9201;DHT22;4635;48.686;9.008;2023-03-14T00:54:01;7.90;99.90
9201;DHT22;4635;48.686;9.008;2023-03-14T00:56:45;8.20;99.90
9201;DHT22;4635;48.686;9.008;2023-03-14T01:02:17;8.70;99.90
9201;DHT22;4635;48.686;9.008;2023-03-14T01:04:50;8.30;99.90
9201;DHT22;4635;48.686;9.008;2023-03-14T01:07:29;8.30;99.90
9201;DHT22;4635;48.686;9.008;2023-03-14T01:09:58;8.30;99.90
9201;DHT22;4635;48.686;9.008;2023-03-14T01:12:25;8.30;99.90
9201;DHT22;4635;48.686;9.008;2023-03-14T01:14:54;8.30;90.80
9201;DHT22;4635;48.686;9.008;2023-03-14T01:17:23;8.30;91.20
9201;DHT22;4635;48.686;9.008;2023-03-14T01:19:50;8.30;99.90
9201;DHT22;4635;48.686;9.008;2023-03-14T01:22:19;8.30;99.90
9201;DHT22;4635;48.686;9.008;2023-03-14T01:24:50;8.30;99.90
9201;DHT22;4635;48.686;9.008;2023-03-14T01:27:21;8.30;99.90
9201;DHT22;4635;48.686;9.008;2023-03-14T01:29:50;8.30;99.90
9201;DHT22;4635;48.686;9.008;2023-03-14T01:32:19;9.20;99.90
9201;DHT22;4635;48.686;9.008;2023-03-14T01:34:57;8.30;99.90
9201;DHT22;4635;48.686;9.008;2023-03-14T01:37:31;8.40;99.90
9201;DHT22;4635;48.686;9.008;2023-03-14T01:40:01;8.30;99.90
9201;DHT22;4635;48.686;9.008;2023-03-14T01:42:44;8.40;99.90
9201;DHT22;4635;48.686;9.008;2023-03-14T01:48:00;8.20;99.90
9201;DHT22;4635;48.686;9.008;2023-03-14T01:53:18;8.10;99.90
9201;DHT22;4635;48.686;9.008;2023-03-14T01:55:47;8.10;99.90
9201;DHT22;4635;48.686;9.008;2023-03-14T01:58:17;8.10;99.90
9201;DHT22;4635;48.686;9.008;2023-03-14T02:00:46;8.00;99.90
9201;DHT22;4635;48.686;9.008;2023-03-14T02:03:16;8.00;99.90
9201;DHT22;4635;48.686;9.008;2023-03-14T02:05:57;8.00;99.90
9201;DHT22;4635;48.686;9.008;2023-03-14T02:08:30;8.00;99.90
9201;DHT22;4635;48.686;9.008;2023-03-14T02:11:08;8.20;99.90
9201;DHT22;4635;48.686;9.008;2023-03-14T02:13:36;8.00;99.90
9201;DHT22;4635;48.686;9.008;2023-03-14T02:16:09;8.00;99.90
9201;DHT22;4635;48.686;9.008;2023-03-14T02:18:36;8.00;99.90
9201;DHT22;4635;48.686;9.008;2023-03-14T02:21:10;9.10;99.90
9201;DHT22;4635;48.686;9.008;2023-03-14T02:23:43;8.40;99.90
9201;DHT22;4635;48.686;9.008;2023-03-14T02:26:16;8.10;99.90
9201;DHT22;4635;48.686;9.008;2023-03-14T02:28:50;8.00;99.90
9201;DHT22;4635;48.686;9.008;2023-03-14T02:31:30;8.00;99.90
9201;DHT22;4635;48.686;9.008;2023-03-14T02:34:02;8.00;99.90
9201;DHT22;4635;48.686;9.008;2023-03-14T02:36:30;8.00;99.90
9201;DHT22;4635;48.686;9.008;2023-03-14T02:39:06;8.00;99.90
9201;DHT22;4635;48.686;9.008;2023-03-14T02:41:50;8.00;99.90
9201;DHT22;4635;48.686;9.008;2023-03-14T02:44:20;8.00;99.90
9201;DHT22;4635;48.686;9.008;2023-03-14T02:46:47;8.90;99.90
9201;DHT22;4635;48.686;9.008;2023-03-14T02:49:15;8.00;99.90
9201;DHT22;4635;48.686;9.008;2023-03-14T02:51:43;8.30;99.90
9201;DHT22;4635;48.686;9.008;2023-03-14T02:54:12;8.00;98.20
9201;DHT22;4635;48.686;9.008;2023-03-14T02:56:40;7.80;99.90
9201;DHT22;4635;48.686;9.008;2023-03-14T02:59:07;7.80;97.60
9201;DHT22;4635;48.686;9.008;2023-03-14T03:01:38;7.70;95.20
9201;DHT22;4635;48.686;9.008;2023-03-14T03:04:05;8.00;92.20
9201;DHT22;4635;48.686;9.008;2023-03-14T03:06:33;7.70;96.80
9201;DHT22;4635;48.686;9.008;2023-03-14T03:09:01;7.70;81.10
9201;DHT22;4635;48.686;9.008;2023-03-14T03:11:36;7.70;85.30
9201;DHT22;4635;48.686;9.008;2023-03-14T03:14:04;7.70;4.90
9201;DHT22;4635;48.686;9.008;2023-03-14T03:16:31;7.60;37.70
9201;DHT22;4635;48.686;9.008;2023-03-14T03:19:00;7.70;14.30
9201;DHT22;4635;48.686;9.008;2023-03-14T03:21:29;7.60;8.80
9201;DHT22;4635;48.686;9.008;2023-03-14T03:23:56;7.90;12.40
9201;DHT22;4635;48.686;9.008;2023-03-14T03:26:26;7.60;1.10
9201;DHT22;4635;48.686;9.008;2023-03-14T03:28:54;7.90;1.00
9201;DHT22;4635;48.686;9.008;2023-03-14T03:31:25;7.40;1.00
9201;DHT22;4635;48.686;9.008;2023-03-14T03:33:53;7.50;1.00
9201;DHT22;4635;48.686;9.008;2023-03-14T03:36:24;7.50;1.00
9201;DHT22;4635;48.686;9.008;2023-03-14T03:38:55;7.80;1.00
9201;DHT22;4635;48.686;9.008;2023-03-14T03:41:25;7.40;1.00
9201;DHT22;4635;48.686;9.008;2023-03-14T03:43:53;8.00;1.00
9201;DHT22;4635;48.686;9.008;2023-03-14T03:46:22;7.50;1.00
9201;DHT22;4635;48.686;9.008;2023-03-14T03:48:56;7.60;1.00
9201;DHT22;4635;48.686;9.008;2023-03-14T03:51:29;7.60;1.00
9201;DHT22;4635;48.686;9.008;2023-03-14T03:53:59;7.70;99.90
9201;DHT22;4635;48.686;9.008;2023-03-14T03:56:27;7.80;99.90
9201;DHT22;4635;48.686;9.008;2023-03-14T03:59:09;8.00;99.90
9201;DHT22;4635;48.686;9.008;2023-03-14T04:01:39;7.60;99.90
9201;DHT22;4635;48.686;9.008;2023-03-14T04:04:23;7.80;99.90
9201;DHT22;4635;48.686;9.008;2023-03-14T04:09:38;7.70;99.90
9201;DHT22;4635;48.686;9.008;2023-03-14T04:12:06;7.80;99.90
9201;DHT22;4635;48.686;9.008;2023-03-14T04:14:34;7.80;99.30
9201;DHT22;4635;48.686;9.008;2023-03-14T04:17:01;7.90;1.00
9201;DHT22;4635;48.686;9.008;2023-03-14T04:19:29;7.80;91.90
9201;DHT22;4635;48.686;9.008;2023-03-14T04:21:57;7.80;99.90
9201;DHT22;4635;48.686;9.008;2023-03-14T04:27:22;8.00;99.90
9201;DHT22;4635;48.686;9.008;2023-03-14T04:30:07;7.90;1.00
9201;DHT22;4635;48.686;9.008;2023-03-14T04:32:47;7.90;1.00
9201;DHT22;4635;48.686;9.008;2023-03-14T04:35:16;7.90;99.90
9201;DHT22;4635;48.686;9.008;2023-03-14T04:37:45;7.90;99.90
9201;DHT22;4635;48.686;9.008;2023-03-14T04:40:17;7.90;99.90
9201;DHT22;4635;48.686;9.008;2023-03-14T04:42:56;7.90;99.90
9201;DHT22;4635;48.686;9.008;2023-03-14T04:45:39;7.90;99.90
9201;DHT22;4635;48.686;9.008;2023-03-14T04:48:15;8.40;1.00
9201;DHT22;4635;48.686;9.008;2023-03-14T04:50:45;7.90;99.90
9201;DHT22;4635;48.686;9.008;2023-03-14T04:53:26;7.90;99.90
9201;DHT22;4635;48.686;9.008;2023-03-14T04:56:08;7.80;1.00
9201;DHT22;4635;48.686;9.008;2023-03-14T04:58:51;7.80;99.90
9201;DHT22;4635;48.686;9.008;2023-03-14T05:01:20;7.80;99.90
9201;DHT22;4635;48.686;9.008;2023-03-14T05:04:08;8.90;99.90
9201;DHT22;4635;48.686;9.008;2023-03-14T05:06:38;7.70;99.90
9201;DHT22;4635;48.686;9.008;2023-03-14T05:09:22;7.70;99.90
9201;DHT22;4635;48.686;9.008;2023-03-14T05:12:11;7.70;99.90
9201;DHT22;4635;48.686;9.008;2023-03-14T05:15:05;7.60;99.90
9201;DHT22;4635;48.686;9.008;2023-03-14T05:17:35;7.70;99.90
9201;DHT22;4635;48.686;9.008;2023-03-14T05:20:12;7.70;20.80
9201;DHT22;4635;48.686;9.008;2023-03-14T05:22:55;7.70;99.90
9201;DHT22;4635;48.686;9.008;2023-03-14T05:25:22;7.70;99.90
9201;DHT22;4635;48.686;9.008;2023-03-14T05:28:06;7.70;99.90
9201;DHT22;4635;48.686;9.008;2023-03-14T05:30:41;7.70;15.80
9201;DHT22;4635;48.686;9.008;2023-03-14T05:33:09;7.70;99.90
9201;DHT22;4635;48.686;9.008;2023-03-14T05:35:40;7.80;99.90
9201;DHT22;4635;48.686;9.008;2023-03-14T05:38:22;7.80;1.00
9201;DHT22;4635;48.686;9.008;2023-03-14T05:41:07;7.70;1.00
9201;DHT22;4635;48.686;9.008;2023-03-14T05:43:38;7.70;1.00
9201;DHT22;4635;48.686;9.008;2023-03-14T05:46:30;7.70;1.00
9201;DHT22;4635;48.686;9.008;2023-03-14T05:49:23;7.60;1.00
9201;DHT22;4635;48.686;9.008;2023-03-14T05:52:00;8.40;1.00
9201;DHT22;4635;48.686;9.008;2023-03-14T05:54:28;7.60;1.00
9201;DHT22;4635;48.686;9.008;2023-03-14T05:57:12;7.60;1.00
9201;DHT22;4635;48.686;9.008;2023-03-14T05:59:41;7.60;1.00
9201;DHT22;4635;48.686;9.008;2023-03-14T06:02:27;7.60;1.00
9201;DHT22;4635;48.686;9.008;2023-03-14T06:07:19;7.70;1.00
9201;DHT22;4635;48.686;9.008;2023-03-14T06:11:23;7.90;1.00
9201;DHT22;4635;48.686;9.008;2023-03-14T06:13:50;7.90;1.00
9201;DHT22;4635;48.686;9.008;2023-03-14T06:16:37;7.90;1.00
9201;DHT22;4635;48.686;9.008;2023-03-14T06:42:42;8.10;99.90
9201;DHT22;4635;48.686;9.008;2023-03-14T06:46:04;8.20;1.00
9201;DHT22;4635;48.686;9.008;2023-03-14T06:48:50;8.20;1.00
9201;DHT22;4635;48.686;9.008;2023-03-14T06:51:30;8.30;1.00
9201;DHT22;4635;48.686;9.008;2023-03-14T06:54:08;8.40;1.00
9201;DHT22;4635;48.686;9.008;2023-03-14T06:56:58;8.60;1.00
9201;DHT22;4635;48.686;9.008;2023-03-14T07:20:29;8.40;1.00
9201;DHT22;4635;48.686;9.008;2023-03-14T07:23:13;8.90;1.00
9201;DHT22;4635;48.686;9.008;2023-03-14T07:29:32;8.90;1.00
9201;DHT22;4635;48.686;9.008;2023-03-14T16:51:33;7.30;1.00
9201;DHT22;4635;48.686;9.008;2023-03-14T16:54:14;7.40;1.00
9201;DHT22;4635;48.686;9.008;2023-03-14T16:56:57;7.10;1.00
9201;DHT22;4635;48.686;9.008;2023-03-14T16:59:27;7.40;1.00
9201;DHT22;4635;48.686;9.008;2023-03-14T17:02:07;7.40;1.00
9201;DHT22;4635;48.686;9.008;2023-03-14T17:04:49;7.70;1.00
9201;DHT22;4635;48.686;9.008;2023-03-14T17:07:32;7.20;1.00
9201;DHT22;4635;48.686;9.008;2023-03-14T17:10:18;7.10;1.00
9201;DHT22;4635;48.686;9.008;2023-03-14T17:16:06;6.40;1.00
9201;DHT22;4635;48.686;9.008;2023-03-14T17:18:57;6.60;1.00
9201;DHT22;4635;48.686;9.008;2023-03-14T17:21:32;6.40;1.00
9201;DHT22;4635;48.686;9.008;2023-03-14T17:30:02;5.80;1.00
9201;DHT22;4635;48.686;9.008;2023-03-14T17:32:32;6.10;1.00
9201;DHT22;4635;48.686;9.008;2023-03-14T17:35:06;6.10;1.00
9201;DHT22;4635;48.686;9.008;2023-03-14T17:38:15;6.10;1.00
9201;DHT22;4635;48.686;9.008;2023-03-14T17:40:38;6.10;1.00
9201;DHT22;4635;48.686;9.008;2023-03-14T17:43:07;6.00;1.00
9201;DHT22;4635;48.686;9.008;2023-03-14T17:45:38;6.10;1.00
9201;DHT22;4635;48.686;9.008;2023-03-14T17:48:07;6.40;1.00
9201;DHT22;4635;48.686;9.008;2023-03-14T17:50:35;6.20;79.70
9201;DHT22;4635;48.686;9.008;2023-03-14T17:53:26;5.90;99.90
9201;DHT22;4635;48.686;9.008;2023-03-14T17:56:14;6.20;1.00
9201;DHT22;4635;48.686;9.008;2023-03-14T17:58:41;5.80;1.00
9201;DHT22;4635;48.686;9.008;2023-03-14T18:01:14;5.70;99.90
9201;DHT22;4635;48.686;9.008;2023-03-14T18:03:44;5.70;1.00
9201;DHT22;4635;48.686;9.008;2023-03-14T18:06:21;5.50;99.90
9201;DHT22;4635;48.686;9.008;2023-03-14T18:08:58;5.50;99.90
9201;DHT22;4635;48.686;9.008;2023-03-14T18:11:30;5.30;1.00
9201;DHT22;4635;48.686;9.008;2023-03-14T18:14:00;5.10;1.00
9201;DHT22;4635;48.686;9.008;2023-03-14T18:19:33;4.20;1.00
9201;DHT22;4635;48.686;9.008;2023-03-14T18:22:16;4.00;1.00
9201;DHT22;4635;48.686;9.008;2023-03-14T18:25:16;4.00;1.00
9201;DHT22;4635;48.686;9.008;2023-03-14T18:27:43;3.90;1.00
9201;DHT22;4635;48.686;9.008;2023-03-14T18:30:22;3.80;1.00
9201;DHT22;4635;48.686;9.008;2023-03-14T18:32:56;3.90;27.90
9201;DHT22;4635;48.686;9.008;2023-03-14T18:35:32;3.70;10.70
9201;DHT22;4635;48.686;9.008;2023-03-14T18:38:05;3.70;1.00
9201;DHT22;4635;48.686;9.008;2023-03-14T18:40:42;3.60;37.20
9201;DHT22;4635;48.686;9.008;2023-03-14T18:43:15;3.60;1.00
9201;DHT22;4635;48.686;9.008;2023-03-14T18:45:51;3.50;1.00
9201;DHT22;4635;48.686;9.008;2023-03-14T18:48:25;3.50;1.00
9201;DHT22;4635;48.686;9.008;2023-03-14T18:54:02;3.40;1.00
9201;DHT22;4635;48.686;9.008;2023-03-14T18:56:29;3.50;1.00
9201;DHT22;4635;48.686;9.008;2023-03-14T18:59:02;3.60;1.00
9201;DHT22;4635;48.686;9.008;2023-03-14T19:01:45;3.90;1.00
9201;DHT22;4635;48.686;9.008;2023-03-14T19:04:14;3.50;1.00
9201;DHT22;4635;48.686;9.008;2023-03-14T19:06:51;3.50;1.00
9201;DHT22;4635;48.686;9.008;2023-03-14T19:09:34;3.50;1.00
9201;DHT22;4635;48.686;9.008;2023-03-14T19:12:09;3.70;1.00
9201;DHT22;4635;48.686;9.008;2023-03-14T19:14:39;3.50;99.90
9201;DHT22;4635;48.686;9.008;2023-03-14T19:17:07;3.60;50.90
9201;DHT22;4635;48.686;9.008;2023-03-14T19:19:40;3.60;1.00
9201;DHT22;4635;48.686;9.008;2023-03-14T19:22:21;3.70;1.00
9201;DHT22;4635;48.686;9.008;2023-03-14T19:25:01;3.70;1.00
9201;DHT22;4635;48.686;9.008;2023-03-14T19:27:38;3.80;1.00
9201;DHT22;4635;48.686;9.008;2023-03-14T19:30:09;3.80;1.00
9201;DHT22;4635;48.686;9.008;2023-03-14T19:32:51;3.80;99.90
9201;DHT22;4635;48.686;9.008;2023-03-14T19:35:31;3.80;1.00
9201;DHT22;4635;48.686;9.008;2023-03-14T19:38:01;3.80;1.00
9201;DHT22;4635;48.686;9.008;2023-03-14T19:46:30;3.60;99.90
9201;DHT22;4635;48.686;9.008;2023-03-14T19:48:59;3.90;1.00
9201;DHT22;4635;48.686;9.008;2023-03-14T19:51:30;3.90;1.00
9201;DHT22;4635;48.686;9.008;2023-03-14T19:54:01;3.90;99.90
9201;DHT22;4635;48.686;9.008;2023-03-14T19:56:33;3.90;1.00
9201;DHT22;4635;48.686;9.008;2023-03-14T19:59:13;3.90;1.00
9201;DHT22;4635;48.686;9.008;2023-03-14T20:01:42;3.90;99.90
9201;DHT22;4635;48.686;9.008;2023-03-14T20:04:11;3.90;99.90
9201;DHT22;4635;48.686;9.008;2023-03-14T20:06:42;3.90;1.00
9201;DHT22;4635;48.686;9.008;2023-03-14T20:09:10;4.20;1.00
9201;DHT22;4635;48.686;9.008;2023-03-14T20:11:39;3.80;99.90
9201;DHT22;4635;48.686;9.008;2023-03-14T20:14:08;3.80;99.90
9201;DHT22;4635;48.686;9.008;2023-03-14T20:16:36;4.30;99.90
9201;DHT22;4635;48.686;9.008;2023-03-14T20:19:07;3.80;99.90
9201;DHT22;4635;48.686;9.008;2023-03-14T20:21:36;3.80;1.00
9201;DHT22;4635;48.686;9.008;2023-03-14T20:24:03;3.70;99.90
9201;DHT22;4635;48.686;9.008;2023-03-14T20:26:32;3.90;1.00
9201;DHT22;4635;48.686;9.008;2023-03-14T20:29:16;4.00;1.00
9201;DHT22;4635;48.686;9.008;2023-03-14T20:31:43;4.10;99.90
9201;DHT22;4635;48.686;9.008;2023-03-14T20:34:14;4.10;99.90
9201;DHT22;4635;48.686;9.008;2023-03-14T20:36:57;4.10;99.90
9201;DHT22;4635;48.686;9.008;2023-03-14T20:39:39;4.10;1.00
9201;DHT22;4635;48.686;9.008;2023-03-14T20:42:07;4.20;99.90
9201;DHT22;4635;48.686;9.008;2023-03-14T20:44:34;4.20;1.00
9201;DHT22;4635;48.686;9.008;2023-03-14T20:50:15;3.90;1.00
9201;DHT22;4635;48.686;9.008;2023-03-14T20:52:45;3.80;99.90
9201;DHT22;4635;48.686;9.008;2023-03-14T20:55:13;3.70;99.90
9201;DHT22;4635;48.686;9.008;2023-03-14T20:57:41;3.70;99.90
9201;DHT22;4635;48.686;9.008;2023-03-14T21:00:11;3.60;1.00
9201;DHT22;4635;48.686;9.008;2023-03-14T21:02:41;3.70;99.90
9201;DHT22;4635;48.686;9.008;2023-03-14T21:05:23;3.60;99.90
9201;DHT22;4635;48.686;9.008;2023-03-14T21:07:53;4.10;99.90
9201;DHT22;4635;48.686;9.008;2023-03-14T21:10:21;3.50;1.00
9201;DHT22;4635;48.686;9.008;2023-03-14T21:12:48;3.70;1.00
9201;DHT22;4635;48.686;9.008;2023-03-14T21:15:20;3.60;1.00
9201;DHT22;4635;48.686;9.008;2023-03-14T21:17:47;3.50;1.00
9201;DHT22;4635;48.686;9.008;2023-03-14T21:20:18;3.40;1.00
9201;DHT22;4635;48.686;9.008;2023-03-14T21:22:47;3.30;1.00
9201;DHT22;4635;48.686;9.008;2023-03-14T21:25:17;3.30;1.00
9201;DHT22;4635;48.686;9.008;2023-03-14T21:27:46;3.30;1.00
9201;DHT22;4635;48.686;9.008;2023-03-14T21:30:14;3.30;1.00
9201;DHT22;4635;48.686;9.008;2023-03-14T21:32:42;3.30;1.00
9201;DHT22;4635;48.686;9.008;2023-03-14T21:35:11;3.20;1.00
9201;DHT22;4635;48.686;9.008;2023-03-14T21:37:43;3.20;1.00
9201;DHT22;4635;48.686;9.008;2023-03-14T21:40:15;3.30;1.00
9201;DHT22;4635;48.686;9.008;2023-03-14T21:42:43;3.30;1.00
9201;DHT22;4635;48.686;9.008;2023-03-14T21:45:11;3.30;1.00
9201;DHT22;4635;48.686;9.008;2023-03-14T21:48:00;3.30;1.00
9201;DHT22;4635;48.686;9.008;2023-03-14T21:50:36;3.30;1.00
9201;DHT22;4635;48.686;9.008;2023-03-14T21:53:05;3.30;1.00
9201;DHT22;4635;48.686;9.008;2023-03-14T21:55:48;3.30;1.00
9201;DHT22;4635;48.686;9.008;2023-03-14T21:58:18;3.30;1.00
9201;DHT22;4635;48.686;9.008;2023-03-14T22:00:48;3.40;1.00
9201;DHT22;4635;48.686;9.008;2023-03-14T22:03:19;3.70;1.00
9201;DHT22;4635;48.686;9.008;2023-03-14T22:05:48;3.30;1.00
9201;DHT22;4635;48.686;9.008;2023-03-14T22:08:17;3.30;1.00
9201;DHT22;4635;48.686;9.008;2023-03-14T22:10:53;3.30;1.00
9201;DHT22;4635;48.686;9.008;2023-03-14T22:13:31;3.30;1.00
9201;DHT22;4635;48.686;9.008;2023-03-14T22:15:59;3.30;1.00
9201;DHT22;4635;48.686;9.008;2023-03-14T22:18:26;3.30;1.00
9201;DHT22;4635;48.686;9.008;2023-03-14T22:21:03;3.30;1.00
9201;DHT22;4635;48.686;9.008;2023-03-14T22:23:45;3.40;1.00
9201;DHT22;4635;48.686;9.008;2023-03-14T22:26:14;3.30;1.00
9201;DHT22;4635;48.686;9.008;2023-03-14T22:28:44;3.40;1.00
9201;DHT22;4635;48.686;9.008;2023-03-14T22:31:11;3.20;1.00
9201;DHT22;4635;48.686;9.008;2023-03-14T22:33:38;3.40;1.00
9201;DHT22;4635;48.686;9.008;2023-03-14T22:36:07;3.30;1.00
9201;DHT22;4635;48.686;9.008;2023-03-14T22:38:35;2.80;1.00
9201;DHT22;4635;48.686;9.008;2023-03-14T22:41:07;2.20;1.00
9201;DHT22;4635;48.686;9.008;2023-03-14T22:43:48;1.90;1.00
9201;DHT22;4635;48.686;9.008;2023-03-14T22:46:18;1.70;1.00
9201;DHT22;4635;48.686;9.008;2023-03-14T22:48:50;1.60;1.00
9201;DHT22;4635;48.686;9.008;2023-03-14T22:51:33;1.60;26.90
9201;DHT22;4635;48.686;9.008;2023-03-14T22:54:05;1.20;1.00
9201;DHT22;4635;48.686;9.008;2023-03-14T22:56:37;1.30;1.00
9201;DHT22;4635;48.686;9.008;2023-03-14T22:59:19;1.20;1.00
9201;DHT22;4635;48.686;9.008;2023-03-14T23:01:49;1.10;1.00
9201;DHT22;4635;48.686;9.008;2023-03-14T23:04:30;1.10;1.00
9201;DHT22;4635;48.686;9.008;2023-03-14T23:06:58;1.10;1.00
9201;DHT22;4635;48.686;9.008;2023-03-14T23:09:38;1.10;1.00
9201;DHT22;4635;48.686;9.008;2023-03-14T23:12:19;1.00;1.00
9201;DHT22;4635;48.686;9.008;2023-03-14T23:14:50;1.00;1.00
9201;DHT22;4635;48.686;9.008;2023-03-14T23:17:24;1.00;1.00
9201;DHT22;4635;48.686;9.008;2023-03-14T23:19:51;1.00;1.00
9201;DHT22;4635;48.686;9.008;2023-03-14T23:22:20;2.30;1.00
9201;DHT22;4635;48.686;9.008;2023-03-14T23:24:48;1.00;1.00
9201;DHT22;4635;48.686;9.008;2023-03-14T23:27:21;1.10;1.00
9201;DHT22;4635;48.686;9.008;2023-03-14T23:29:54;0.90;1.00
9201;DHT22;4635;48.686;9.008;2023-03-14T23:32:22;1.00;1.00
9201;DHT22;4635;48.686;9.008;2023-03-14T23:34:55;1.00;1.00
9201;DHT22;4635;48.686;9.008;2023-03-14T23:37:23;1.00;1.00
9201;DHT22;4635;48.686;9.008;2023-03-14T23:40:05;1.20;1.00
9201;DHT22;4635;48.686;9.008;2023-03-14T23:42:36;1.00;1.00
9201;DHT22;4635;48.686;9.008;2023-03-14T23:45:09;1.00;1.00
9201;DHT22;4635;48.686;9.008;2023-03-14T23:47:38;1.00;1.00
9201;DHT22;4635;48.686;9.008;2023-03-14T23:50:07;1.00;1.00
9201;DHT22;4635;48.686;9.008;2023-03-14T23:52:41;0.90;1.00
9201;DHT22;4635;48.686;9.008;2023-03-14T23:55:08;0.90;1.00
9201;DHT22;4635;48.686;9.008;2023-03-14T23:57:35;1.00;1.00
